KHAFKTVL

Guest
Details From KHAF - HALF MOON BAY
To KTVL - South Lake Tahoe
Flight Number -
Tags generated
Created
Modified
Stats Distance 144 nm / 267 km
Max Altitude 15,700 ft / 4,785 m
Waypoints 3
Social Downloads 1
Likes 0
Share VATSIM

Download

Looking for another format? Having issues loading an existing format? Contact us
Advertisement - Login to hide

Notes

Basic altitude profile: - Ascent Rate: 2500ft/min - Ascent Speed: 250kts - Cruise Altitude: 35000ft - Cruise Speed: 420kts - Descent Rate: 1500ft/min - Descent Speed: 250kts Options: - Use NATs: yes - Use PACOTS: yes - Use low airways: yes - Use high airways: yes

Route

KHAF EPPES KTVL

ID Type Via Altitude Latitude Longitude Leg Dist Tot Dist Heading (true) Name
O KHAF APT - 0 ft / 0 m 37.51343˚ -122.50116˚ - 0 nm - HALF MOON BAY
EPPES FIX - 15,700 ft / 4,785 m 38.16153˚ -121.37487˚ 66 nm 66 nm 54° / 54° -
O KTVL APT - 0 ft / 0 m 38.89388˚ -119.99533˚ 78 nm 144 nm 55° / 56° South Lake Tahoe

Altitude Profile

Advertisement - Login to hide

KHAF

Details ICAO KHAF
Name HALF MOON BAY
Region United States
Timezone America/Los_Angeles (UTC-7.0)
Stats Elevation 66 ft / 20 m (AMSL)
Location 37.513435° -122.501163°
Runways 1
Magnetic Variation 13.418° E

METAR

KHAF 221235Z AUTO 30006KT 2SM BR BKN008 OVC011 11/10 A2990 RMK AO2

Decode

TAF

Not found

Departure Runways

ID Width Length Bearing (true) Bearing (mag) Surface Threshold Offset Overrun Length
12 151 ft / 46 m 5,005 ft / 1,525 m 137.06° 123.64° Asphalt 764 ft / 233 m 0 ft / 0 m
30 151 ft / 46 m 5,005 ft / 1,525 m 317.06° 303.64° Asphalt 764 ft / 233 m 0 ft / 0 m

KTVL

Details ICAO KTVL (TVL)
Name South Lake Tahoe
Region United States
Timezone America/Los_Angeles (UTC-7.0)
Stats Elevation 6,264 ft / 1,909 m (AMSL)
Location 38.893882° -119.995335°
Runways 1
Magnetic Variation 13.277° E

METAR

KTVL 221153Z AUTO 00000KT 10SM OVC050 06/06 A2998 RMK AO2 SLP116 70014 T00610056 10078 20050 51001

Decode

TAF

KTVL 221123Z 2212/2312 19004KT P6SM FEW002 OVC050 FM221600 VRB04KT P6SM FEW004 SCT050 SCT090 FM221900 04005KT P6SM VCSH BKN050 OVC080 FM222200 04005KT P6SM -SHRA VCTS BKN040CB OVC060 FM230400 19003KT P6SM VCSH SCT040 BKN070 FM230800 VRB03KT P6SM FEW040 SCT070 BKN110

Decode

Destination Runways

ID Width Length Bearing (true) Bearing (mag) Surface Threshold Offset Overrun Length
18 150 ft / 46 m 8,556 ft / 2,608 m 192.88° 179.60° Asphalt 0 ft / 0 m 0 ft / 0 m
36 150 ft / 46 m 8,556 ft / 2,608 m 12.88° 359.60° Asphalt 2,037 ft / 621 m 0 ft / 0 m

Approach Navaids

Runway Type Ident Frequency Range Bearing (true) Bearing (mag) Slope Elevation
18 Localiser ITVL 108.90 MHz 18 nm / 33 km 186.00° 172.72° - 6,264 ft / 1,909 m (AMSL)
18 DME ITVL 108.90 MHz 18 nm / 33 km - - - 6,264 ft / 1,909 m (AMSL)

Popular Alternatives